createdAt,value
2023-05-21T00:01:40.518Z,69.56
2023-05-21T00:04:07.884Z,70.08
2023-05-21T00:06:37.575Z,69.46
2023-05-21T00:09:05.829Z,69.82
2023-05-21T00:11:32.780Z,70.49
2023-05-21T00:13:59.349Z,69.45
2023-05-21T00:16:26.126Z,69.67
2023-05-21T00:18:54.354Z,69.92
2023-05-21T00:21:26.300Z,70.13
2023-05-21T00:23:57.022Z,70.53
2023-05-21T00:26:26.626Z,70.50
2023-05-21T00:28:53.213Z,70.57
2023-05-21T00:31:19.758Z,70.41
2023-05-21T00:33:46.530Z,70.76
2023-05-21T00:36:14.590Z,70.89
2023-05-21T00:38:45.682Z,70.93
2023-05-21T00:41:13.179Z,71.35
2023-05-21T00:43:42.234Z,71.35
2023-05-21T00:46:12.177Z,71.46
2023-05-21T00:48:39.699Z,71.52
2023-05-21T00:51:07.257Z,71.80
2023-05-21T00:53:37.338Z,71.72
2023-05-21T00:56:04.525Z,72.38
2023-05-21T00:58:33.427Z,72.77
2023-05-21T01:01:06.762Z,72.36
2023-05-21T01:03:38.452Z,72.28
2023-05-21T01:06:06.403Z,72.75
2023-05-21T01:08:34.909Z,72.87
2023-05-21T01:11:03.262Z,73.24
2023-05-21T01:13:31.415Z,73.02
2023-05-21T01:15:59.669Z,73.21
2023-05-21T01:18:26.732Z,73.26
2023-05-21T01:20:53.768Z,73.73
2023-05-21T01:23:20.712Z,73.51
2023-05-21T01:25:47.703Z,74.20
2023-05-21T01:28:14.523Z,74.14
2023-05-21T01:30:42.775Z,73.95
2023-05-21T01:33:20.359Z,73.96
2023-05-21T01:36:05.647Z,74.11
2023-05-21T01:38:43.743Z,73.83
2023-05-21T01:41:17.954Z,73.77
2023-05-21T01:43:46.524Z,74.49
2023-05-21T01:46:20.013Z,74.67
2023-05-21T01:48:48.240Z,74.45
2023-05-21T01:51:14.867Z,74.94
2023-05-21T01:53:41.602Z,74.66
2023-05-21T01:56:08.349Z,75.11
2023-05-21T01:58:34.932Z,75.32
2023-05-21T02:01:02.863Z,74.69
2023-05-21T02:03:31.168Z,75.93
2023-05-21T02:05:57.870Z,75.59
2023-05-21T02:08:25.610Z,75.76
2023-05-21T02:10:52.354Z,75.95
2023-05-21T02:13:25.731Z,76.15
2023-05-21T02:15:54.819Z,76.52
2023-05-21T02:18:22.221Z,76.70
2023-05-21T02:20:48.985Z,76.87
2023-05-21T02:23:15.844Z,76.61
2023-05-21T02:25:42.604Z,77.03
2023-05-21T02:28:09.192Z,76.72
2023-05-21T02:30:36.574Z,76.76
2023-05-21T02:33:03.277Z,77.22
2023-05-21T02:35:29.940Z,77.52
2023-05-21T02:37:59.440Z,77.59
2023-05-21T02:40:26.362Z,78.33
2023-05-21T02:42:52.905Z,78.28
2023-05-21T02:45:19.534Z,78.12
2023-05-21T02:47:46.193Z,78.16
2023-05-21T02:50:14.194Z,78.21
2023-05-21T02:52:41.681Z,78.80
2023-05-21T02:55:08.695Z,78.71
2023-05-21T02:57:35.265Z,78.94
2023-05-21T03:00:01.803Z,78.83
2023-05-21T03:02:28.416Z,79.15
2023-05-21T03:04:55.604Z,79.01
2023-05-21T03:07:22.554Z,79.67
2023-05-21T03:09:49.147Z,79.89
2023-05-21T03:12:15.802Z,80.02
2023-05-21T03:14:44.101Z,80.14
2023-05-21T03:17:13.877Z,80.39
2023-05-21T03:19:41.763Z,80.29
2023-05-21T03:22:08.438Z,80.44
2023-05-21T03:24:35.336Z,80.53
2023-05-21T03:27:02.350Z,80.65
2023-05-21T03:29:29.167Z,80.62
2023-05-21T03:31:56.200Z,80.58
2023-05-21T03:34:23.313Z,80.73
2023-05-21T03:36:50.623Z,80.85
2023-05-21T03:39:17.419Z,80.91
2023-05-21T03:41:44.164Z,81.54
2023-05-21T03:44:10.772Z,81.39
2023-05-21T03:46:37.528Z,81.80
2023-05-21T03:49:04.248Z,82.33
2023-05-21T03:51:31.807Z,81.68
2023-05-21T03:53:59.445Z,81.37
2023-05-21T03:56:26.337Z,81.92
2023-05-21T03:58:53.098Z,81.87
2023-05-21T04:01:19.745Z,82.14
2023-05-21T04:03:46.667Z,81.99
2023-05-21T04:06:13.824Z,82.76
2023-05-21T04:08:40.358Z,82.67
2023-05-21T04:11:06.985Z,83.39
2023-05-21T04:13:33.851Z,83.41
2023-05-21T04:16:00.633Z,83.48
2023-05-21T04:18:27.441Z,83.81
2023-05-21T04:20:54.120Z,83.66
2023-05-21T04:23:23.485Z,84.22
2023-05-21T04:25:50.917Z,84.26
2023-05-21T04:28:21.205Z,84.21
2023-05-21T04:30:48.038Z,84.54
2023-05-21T04:33:18.526Z,84.42
2023-05-21T04:35:47.351Z,84.72
2023-05-21T04:38:14.272Z,84.71
2023-05-21T04:40:40.898Z,84.98
2023-05-21T04:43:08.240Z,84.90
2023-05-21T04:45:35.243Z,84.73
2023-05-21T04:48:03.055Z,85.17
2023-05-21T04:50:30.992Z,85.31
2023-05-21T04:52:58.922Z,85.57
2023-05-21T04:55:25.936Z,85.30
2023-05-21T04:57:53.057Z,85.82
2023-05-21T05:00:20.807Z,85.50
2023-05-21T05:02:47.497Z,85.34
2023-05-21T05:05:14.150Z,85.82
2023-05-21T05:07:40.901Z,85.56
2023-05-21T05:10:08.146Z,85.36
2023-05-21T05:12:34.672Z,85.72
2023-05-21T05:15:01.294Z,86.11
2023-05-21T05:17:27.995Z,86.13
2023-05-21T05:19:54.717Z,86.24
2023-05-21T05:22:21.334Z,86.22
2023-05-21T05:24:47.874Z,85.95
2023-05-21T05:27:14.469Z,86.04
2023-05-21T05:29:41.071Z,87.14
2023-05-21T05:32:08.054Z,86.26
2023-05-21T05:34:35.025Z,86.07
2023-05-21T05:37:03.016Z,86.91
2023-05-21T05:39:29.984Z,86.84
2023-05-21T05:41:56.695Z,86.51
2023-05-21T05:44:23.227Z,86.41
2023-05-21T05:46:49.794Z,85.91
2023-05-21T05:49:16.826Z,87.10
2023-05-21T05:51:43.342Z,86.46
2023-05-21T05:54:09.962Z,85.77
2023-05-21T05:56:36.520Z,86.19
2023-05-21T05:59:03.119Z,85.99
2023-05-21T06:01:29.738Z,86.38
2023-05-21T06:03:57.443Z,86.22
2023-05-21T06:06:24.284Z,86.64
2023-05-21T06:08:50.933Z,86.16
2023-05-21T06:11:18.962Z,86.37
2023-05-21T06:13:45.905Z,86.31
2023-05-21T06:16:12.733Z,84.76
2023-05-21T06:18:39.323Z,84.68
2023-05-21T06:21:06.019Z,84.13
2023-05-21T06:23:32.694Z,84.13
2023-05-21T06:25:59.317Z,84.09
2023-05-21T06:28:25.865Z,83.98
2023-05-21T06:30:52.537Z,83.63
2023-05-21T06:33:19.252Z,83.29
2023-05-21T06:35:46.029Z,83.23
2023-05-21T06:38:12.525Z,83.03
2023-05-21T06:40:39.071Z,82.24
2023-05-21T06:43:05.686Z,82.75
2023-05-21T06:45:32.245Z,82.28
2023-05-21T06:47:58.886Z,82.38
2023-05-21T06:50:25.484Z,81.95
2023-05-21T06:52:52.055Z,82.33
2023-05-21T06:55:18.655Z,83.06
2023-05-21T06:57:45.245Z,82.25
2023-05-21T07:00:12.569Z,83.25
2023-05-21T07:02:39.283Z,82.23
2023-05-21T07:05:06.289Z,82.18
2023-05-21T07:07:34.889Z,81.96
2023-05-21T07:10:01.528Z,81.31
2023-05-21T07:12:28.205Z,82.54
2023-05-21T07:14:54.831Z,82.40
2023-05-21T07:17:21.325Z,83.20
2023-05-21T07:19:47.853Z,81.75
2023-05-21T07:22:14.795Z,80.97
2023-05-21T07:24:41.637Z,80.75
2023-05-21T07:27:17.740Z,80.20
2023-05-21T07:29:51.785Z,80.24
2023-05-21T07:32:18.306Z,79.97
2023-05-21T07:34:44.953Z,78.90
2023-05-21T07:37:11.530Z,78.74
2023-05-21T07:39:38.118Z,79.81
2023-05-21T07:42:04.915Z,79.01
2023-05-21T07:44:31.969Z,79.06
2023-05-21T07:46:58.550Z,78.64
2023-05-21T07:49:25.155Z,78.88
2023-05-21T07:51:51.739Z,78.29
2023-05-21T07:54:19.714Z,78.15
2023-05-21T07:56:46.453Z,78.10
2023-05-21T07:59:17.118Z,77.65
2023-05-21T08:01:44.250Z,77.95
2023-05-21T08:04:11.208Z,77.77
2023-05-21T08:06:37.923Z,77.40
2023-05-21T08:09:06.266Z,76.94
2023-05-21T08:11:33.155Z,77.74
2023-05-21T08:13:59.732Z,76.79
2023-05-21T08:16:26.678Z,76.82
2023-05-21T08:18:53.342Z,77.37
2023-05-21T08:21:19.996Z,78.66
2023-05-21T08:23:46.567Z,76.96
2023-05-21T08:26:13.217Z,76.39
2023-05-21T08:28:39.838Z,76.39
2023-05-21T08:31:06.496Z,77.65
2023-05-21T08:33:37.146Z,76.46
2023-05-21T08:36:05.618Z,76.19
2023-05-21T08:38:32.358Z,76.99
2023-05-21T08:41:00.437Z,76.68
2023-05-21T08:43:28.417Z,76.39
2023-05-21T08:45:56.234Z,76.59
2023-05-21T08:48:24.208Z,75.83
2023-05-21T08:50:53.013Z,74.69
2023-05-21T08:53:27.321Z,76.11
2023-05-21T08:55:55.866Z,74.49
2023-05-21T08:58:22.669Z,75.58
2023-05-21T09:00:49.392Z,73.48
2023-05-21T09:03:16.410Z,73.92
2023-05-21T09:05:44.503Z,73.17
2023-05-21T09:08:21.778Z,73.61
2023-05-21T09:10:50.658Z,73.12
2023-05-21T09:13:18.579Z,71.60
2023-05-21T09:15:45.906Z,71.94
2023-05-21T09:18:13.658Z,71.24
2023-05-21T09:20:40.654Z,71.80
2023-05-21T09:23:12.763Z,72.73
2023-05-21T09:25:39.784Z,72.13
2023-05-21T09:28:12.189Z,72.50
2023-05-21T09:30:44.708Z,71.60
2023-05-21T09:33:12.318Z,72.61
2023-05-21T09:35:46.361Z,73.35
2023-05-21T09:38:13.129Z,72.13
2023-05-21T09:40:44.566Z,70.38
2023-05-21T09:43:14.915Z,70.50
2023-05-21T09:45:51.480Z,71.75
2023-05-21T09:48:32.395Z,71.30
2023-05-21T09:51:12.054Z,69.57
2023-05-21T09:53:53.361Z,71.55
2023-05-21T09:56:24.565Z,69.64
2023-05-21T09:58:54.634Z,69.21
2023-05-21T10:01:21.867Z,69.16
2023-05-21T10:03:53.982Z,69.83
2023-05-21T10:06:21.728Z,68.30
2023-05-21T10:08:52.007Z,70.08
2023-05-21T10:11:19.652Z,69.34
2023-05-21T10:13:53.111Z,70.30
2023-05-21T10:16:19.812Z,69.02
2023-05-21T10:18:49.180Z,68.77
2023-05-21T10:21:16.477Z,68.77
2023-05-21T10:23:44.447Z,70.15
2023-05-21T10:26:12.697Z,68.71
2023-05-21T10:28:40.078Z,68.79
2023-05-21T10:31:07.039Z,70.91
2023-05-21T10:33:35.771Z,68.16
2023-05-21T10:36:02.633Z,69.50
2023-05-21T10:38:29.902Z,68.34
2023-05-21T10:40:57.494Z,67.53
2023-05-21T10:43:47.281Z,68.37
2023-05-21T10:46:32.272Z,67.95
2023-05-21T10:49:04.544Z,67.87
2023-05-21T10:51:59.269Z,67.89
2023-05-21T10:55:02.033Z,68.50
2023-05-21T10:58:01.488Z,68.57
2023-05-21T11:00:28.758Z,68.02
2023-05-21T11:02:55.913Z,67.76
2023-05-21T11:05:50.856Z,67.83
2023-05-21T11:08:30.548Z,68.33
2023-05-21T11:10:58.983Z,67.50
2023-05-21T11:13:45.239Z,66.78
2023-05-21T11:16:18.304Z,67.28
2023-05-21T11:18:44.935Z,67.74
2023-05-21T11:21:17.108Z,67.81
2023-05-21T11:23:54.432Z,66.29
2023-05-21T11:26:26.240Z,67.49
2023-05-21T11:29:05.056Z,65.68
2023-05-21T11:31:40.106Z,65.33
2023-05-21T11:34:30.030Z,65.62
2023-05-21T11:37:18.694Z,66.48
2023-05-21T11:39:45.429Z,66.28
2023-05-21T11:42:12.069Z,66.13
2023-05-21T11:44:48.798Z,65.02
2023-05-21T11:47:17.891Z,65.93
2023-05-21T11:49:45.128Z,66.35
2023-05-21T11:52:12.950Z,65.76
2023-05-21T11:54:51.901Z,66.14
2023-05-21T11:57:19.588Z,66.96
2023-05-21T11:59:47.106Z,66.44
2023-05-21T12:02:18.923Z,66.82
2023-05-21T12:04:48.442Z,64.95
2023-05-21T12:07:17.147Z,65.37
2023-05-21T12:09:45.769Z,66.61
2023-05-21T12:12:15.181Z,66.08
2023-05-21T12:14:49.780Z,64.12
2023-05-21T12:17:18.874Z,64.89
2023-05-21T12:19:46.705Z,65.36
2023-05-21T12:22:15.449Z,64.73
2023-05-21T12:24:44.045Z,64.38
2023-05-21T12:27:13.536Z,63.98
2023-05-21T12:29:42.727Z,63.80
2023-05-21T12:32:14.324Z,64.90
2023-05-21T12:34:48.773Z,64.55
2023-05-21T12:37:23.500Z,65.58
2023-05-21T12:39:55.183Z,65.04
2023-05-21T12:42:35.493Z,66.04
2023-05-21T12:45:11.333Z,65.46
2023-05-21T12:47:38.241Z,63.37
2023-05-21T12:50:14.064Z,65.66
2023-05-21T12:52:43.194Z,64.31
2023-05-21T12:55:13.327Z,64.77
2023-05-21T12:57:39.844Z,64.06
2023-05-21T13:00:12.653Z,64.82
2023-05-21T13:02:41.124Z,65.00
2023-05-21T13:05:09.773Z,63.83
2023-05-21T13:07:38.250Z,64.73
2023-05-21T13:10:06.158Z,64.77
2023-05-21T13:12:34.215Z,63.51
2023-05-21T13:15:02.625Z,64.33
2023-05-21T13:17:29.359Z,63.80
2023-05-21T13:20:16.071Z,63.90
2023-05-21T13:22:48.032Z,62.71
2023-05-21T13:25:16.783Z,63.09
2023-05-21T13:27:44.140Z,65.63
2023-05-21T13:30:11.777Z,64.00
2023-05-21T13:32:39.634Z,65.47
2023-05-21T13:35:06.849Z,63.89
2023-05-21T13:37:37.766Z,64.46
2023-05-21T13:40:05.956Z,63.88
2023-05-21T13:42:33.324Z,63.07
2023-05-21T13:44:59.878Z,64.17
2023-05-21T13:47:29.773Z,65.26
2023-05-21T13:49:56.395Z,63.47
2023-05-21T13:52:23.035Z,63.97
2023-05-21T13:54:49.655Z,64.02
2023-05-21T13:57:20.342Z,64.58
2023-05-21T13:59:51.083Z,64.04
2023-05-21T14:02:17.725Z,63.98
2023-05-21T14:04:44.704Z,64.08
2023-05-21T14:07:14.154Z,64.40
2023-05-21T14:09:40.787Z,64.30
2023-05-21T14:12:07.709Z,65.26
2023-05-21T14:14:34.649Z,64.79
2023-05-21T14:17:01.305Z,64.31
2023-05-21T14:19:28.670Z,63.99
2023-05-21T14:21:56.560Z,63.46
2023-05-21T14:24:23.170Z,66.03
2023-05-21T14:26:49.719Z,65.02
2023-05-21T14:29:24.308Z,63.88
2023-05-21T14:31:50.930Z,63.98
2023-05-21T14:34:17.505Z,64.42
2023-05-21T14:36:44.071Z,65.09
2023-05-21T14:39:10.693Z,64.65
2023-05-21T14:41:39.550Z,64.67
2023-05-21T14:44:06.089Z,65.14
2023-05-21T14:46:32.999Z,65.67
2023-05-21T14:49:00.831Z,66.39
2023-05-21T14:51:27.607Z,66.91
2023-05-21T14:53:54.343Z,66.43
2023-05-21T14:56:21.871Z,66.68
2023-05-21T14:58:48.689Z,67.37
2023-05-21T15:01:15.251Z,67.07
2023-05-21T15:03:42.119Z,66.77
2023-05-21T15:06:09.159Z,67.61
2023-05-21T15:08:35.905Z,68.82
2023-05-21T15:11:02.610Z,66.17
2023-05-21T15:13:29.380Z,66.86
2023-05-21T15:15:56.208Z,68.62
2023-05-21T15:18:24.720Z,68.23
2023-05-21T15:20:51.635Z,68.25
2023-05-21T15:23:18.385Z,68.60
2023-05-21T15:25:45.506Z,67.09
2023-05-21T15:28:12.448Z,67.95
2023-05-21T15:30:41.054Z,68.01
2023-05-21T15:33:08.117Z,68.53
2023-05-21T15:35:36.385Z,68.31
2023-05-21T15:38:03.456Z,68.58
2023-05-21T15:40:30.116Z,68.72
2023-05-21T15:42:57.075Z,68.23
2023-05-21T15:45:24.670Z,68.72
2023-05-21T15:47:51.386Z,68.10
2023-05-21T15:50:17.970Z,68.24
2023-05-21T15:52:44.582Z,68.37
2023-05-21T15:55:11.169Z,68.61
2023-05-21T15:57:37.791Z,68.53
2023-05-21T16:00:05.108Z,68.66
2023-05-21T16:02:31.993Z,68.68
2023-05-21T16:04:58.656Z,68.96
2023-05-21T16:07:25.387Z,68.88
2023-05-21T16:09:51.983Z,69.48
2023-05-21T16:12:18.620Z,68.29
2023-05-21T16:14:48.437Z,68.43
2023-05-21T16:17:15.337Z,69.74
2023-05-21T16:19:42.065Z,68.72
2023-05-21T16:22:10.658Z,69.33
2023-05-21T16:24:37.469Z,69.58
2023-05-21T16:27:04.171Z,68.82
2023-05-21T16:29:30.848Z,69.66
2023-05-21T16:31:57.415Z,69.01
2023-05-21T16:34:24.015Z,69.70
2023-05-21T16:36:51.782Z,70.49
2023-05-21T16:39:18.387Z,70.19
2023-05-21T16:41:44.941Z,70.03
2023-05-21T16:44:11.623Z,71.11
2023-05-21T16:46:38.378Z,70.59
2023-05-21T16:49:05.235Z,71.92
2023-05-21T16:51:32.028Z,70.55
2023-05-21T16:53:58.686Z,71.57
2023-05-21T16:56:27.193Z,72.35
2023-05-21T16:58:53.770Z,71.83
2023-05-21T17:01:24.563Z,71.67
2023-05-21T17:03:56.669Z,72.02
2023-05-21T17:06:25.994Z,71.79
2023-05-21T17:08:52.559Z,72.84
2023-05-21T17:11:19.434Z,72.24
2023-05-21T17:13:49.106Z,72.45
2023-05-21T17:16:15.790Z,73.26
2023-05-21T17:18:42.510Z,73.63
2023-05-21T17:21:11.166Z,73.95
2023-05-21T17:23:39.957Z,73.54
2023-05-21T17:26:08.384Z,74.08
2023-05-21T17:28:42.731Z,75.03
2023-05-21T17:31:10.161Z,74.53
2023-05-21T17:33:37.417Z,74.11
2023-05-21T17:36:04.349Z,75.07
2023-05-21T17:38:37.442Z,74.85
2023-05-21T17:41:04.385Z,74.76
2023-05-21T17:43:32.116Z,75.07
2023-05-21T17:45:58.969Z,75.12
2023-05-21T17:48:28.295Z,75.17
2023-05-21T17:50:55.740Z,75.99
2023-05-21T17:53:22.840Z,76.07
2023-05-21T17:55:51.712Z,76.61
2023-05-21T17:58:18.441Z,76.57
2023-05-21T18:00:45.201Z,76.82
2023-05-21T18:03:13.894Z,77.41
2023-05-21T18:05:40.518Z,77.31
2023-05-21T18:08:10.129Z,76.86
2023-05-21T18:10:36.949Z,77.04
2023-05-21T18:13:06.514Z,77.63
2023-05-21T18:15:34.188Z,77.65
2023-05-21T18:18:01.033Z,77.93
2023-05-21T18:20:27.943Z,78.44
2023-05-21T18:22:54.616Z,77.74
2023-05-21T18:25:21.469Z,78.42
2023-05-21T18:27:48.378Z,78.40
2023-05-21T18:30:17.539Z,78.91
2023-05-21T18:32:44.700Z,79.21
2023-05-21T18:35:17.816Z,79.40
2023-05-21T18:37:48.020Z,79.76
2023-05-21T18:40:15.118Z,79.37
2023-05-21T18:42:43.485Z,79.59
2023-05-21T18:45:13.333Z,79.69
2023-05-21T18:47:40.594Z,79.82
2023-05-21T18:50:12.841Z,80.13
2023-05-21T18:52:39.485Z,80.15
2023-05-21T18:55:06.740Z,80.41
2023-05-21T18:57:34.765Z,80.64
2023-05-21T19:00:01.585Z,81.30
2023-05-21T19:02:29.718Z,81.34
2023-05-21T19:04:56.503Z,81.37
2023-05-21T19:07:23.517Z,81.63
2023-05-21T19:09:50.238Z,82.13
2023-05-21T19:12:17.074Z,82.52
2023-05-21T19:14:49.050Z,82.77
2023-05-21T19:17:36.505Z,82.65
2023-05-21T19:20:05.251Z,83.24
2023-05-21T19:22:35.283Z,83.28
2023-05-21T19:25:01.959Z,83.82
2023-05-21T19:27:29.595Z,84.24
2023-05-21T19:29:56.296Z,84.51
2023-05-21T19:32:23.823Z,85.50
2023-05-21T19:34:52.470Z,85.49
2023-05-21T19:37:19.150Z,85.92
2023-05-21T19:39:49.628Z,86.10
2023-05-21T19:42:17.349Z,86.41
2023-05-21T19:44:44.041Z,86.81
2023-05-21T19:47:10.705Z,86.97
2023-05-21T19:49:37.338Z,87.45
2023-05-21T19:52:04.693Z,87.57
2023-05-21T19:54:31.274Z,88.14
2023-05-21T19:56:57.988Z,88.13
2023-05-21T19:59:24.569Z,88.46
2023-05-21T20:01:51.632Z,88.63
2023-05-21T20:04:18.397Z,89.20
2023-05-21T20:06:45.024Z,89.68
2023-05-21T20:09:13.320Z,89.94
2023-05-21T20:11:42.116Z,89.93
2023-05-21T20:14:09.042Z,90.36
2023-05-21T20:16:36.687Z,90.52
2023-05-21T20:19:03.892Z,90.91
2023-05-21T20:21:31.867Z,91.05
2023-05-21T20:23:58.581Z,91.48
2023-05-21T20:26:26.291Z,91.77
2023-05-21T20:28:53.061Z,91.97
2023-05-21T20:31:20.265Z,92.23
2023-05-21T20:33:46.912Z,92.50
2023-05-21T20:36:15.341Z,92.72
2023-05-21T20:38:42.193Z,92.70
2023-05-21T20:41:08.883Z,93.14
2023-05-21T20:43:37.318Z,93.22
2023-05-21T20:46:05.748Z,93.35
2023-05-21T20:48:32.499Z,93.86
2023-05-21T20:51:00.228Z,94.14
2023-05-21T20:53:27.072Z,94.31
2023-05-21T20:55:54.800Z,94.68
2023-05-21T20:58:24.025Z,94.48
2023-05-21T21:00:51.060Z,94.83
2023-05-21T21:03:18.512Z,95.32
2023-05-21T21:05:45.092Z,95.51
2023-05-21T21:08:12.363Z,95.65
2023-05-21T21:10:41.468Z,95.81
2023-05-21T21:13:08.425Z,95.91
2023-05-21T21:15:35.458Z,95.98
2023-05-21T21:18:02.140Z,96.15
2023-05-21T21:20:28.723Z,96.49
2023-05-21T21:22:55.796Z,96.97
2023-05-21T21:25:22.355Z,96.96
2023-05-21T21:27:49.166Z,96.88
2023-05-21T21:30:15.724Z,97.33
2023-05-21T21:32:42.365Z,97.45
2023-05-21T21:35:10.003Z,97.23
2023-05-21T21:37:36.732Z,97.41
2023-05-21T21:40:03.813Z,97.34
2023-05-21T21:42:30.445Z,97.51
2023-05-21T21:44:57.017Z,97.46
2023-05-21T21:47:23.692Z,97.47
2023-05-21T21:49:50.382Z,97.89
2023-05-21T21:52:17.523Z,97.67
2023-05-21T21:54:44.148Z,98.03
2023-05-21T21:57:10.805Z,98.46
2023-05-21T21:59:38.581Z,98.62
2023-05-21T22:02:05.830Z,98.80
2023-05-21T22:04:32.409Z,98.90
2023-05-21T22:06:59.000Z,99.53
2023-05-21T22:09:25.526Z,99.50
2023-05-21T22:11:53.422Z,99.65
2023-05-21T22:14:20.153Z,99.92
2023-05-21T22:16:47.831Z,100.00
2023-05-21T22:19:15.995Z,100.00
2023-05-21T22:21:43.246Z,100.00
2023-05-21T22:24:20.637Z,100.00
2023-05-21T22:26:56.347Z,100.00
2023-05-21T22:29:22.865Z,100.00
2023-05-21T22:31:49.416Z,100.00
2023-05-21T22:34:15.965Z,100.00
2023-05-21T22:36:43.524Z,100.00
2023-05-21T22:39:10.288Z,100.00
2023-05-21T22:41:36.888Z,100.00
2023-05-21T22:44:03.532Z,100.00
2023-05-21T22:46:30.216Z,100.00
2023-05-21T22:48:56.838Z,100.00
2023-05-21T22:51:23.850Z,100.00
2023-05-21T22:53:50.469Z,100.00
2023-05-21T22:56:17.025Z,100.00
2023-05-21T22:58:43.880Z,100.00
2023-05-21T23:01:10.508Z,100.00
2023-05-21T23:03:37.091Z,100.00
2023-05-21T23:06:03.931Z,100.00
2023-05-21T23:08:30.440Z,100.00
2023-05-21T23:10:56.920Z,100.00
2023-05-21T23:13:23.518Z,100.00
2023-05-21T23:15:50.762Z,100.00
2023-05-21T23:18:17.359Z,100.00
2023-05-21T23:20:44.061Z,100.00
2023-05-21T23:23:11.120Z,100.00
2023-05-21T23:25:37.616Z,100.00
2023-05-21T23:28:04.479Z,100.00
2023-05-21T23:30:31.052Z,100.00
2023-05-21T23:32:57.729Z,100.00
2023-05-21T23:35:24.301Z,100.00
2023-05-21T23:37:50.878Z,100.00
2023-05-21T23:40:17.422Z,100.00
2023-05-21T23:42:44.026Z,100.00
2023-05-21T23:45:11.014Z,100.00
2023-05-21T23:47:37.667Z,100.00
2023-05-21T23:50:04.648Z,100.00
2023-05-21T23:52:31.335Z,100.00
2023-05-21T23:54:58.019Z,100.00
2023-05-21T23:57:24.567Z,100.00
2023-05-21T23:59:51.121Z,100.00
